sensor_id;sensor_type;location;lat;lon;timestamp;P1;P2;P0
39955;PMS5003;25631;51.516;-0.470;2022-12-18T00:00:35;9;9;
39955;PMS5003;25631;51.516;-0.470;2022-12-18T00:03:16;9;9;
39955;PMS5003;25631;51.516;-0.470;2022-12-18T00:05:52;10;9;
39955;PMS5003;25631;51.516;-0.470;2022-12-18T00:08:28;10;9;
39955;PMS5003;25631;51.516;-0.470;2022-12-18T00:11:05;10;9;
39955;PMS5003;25631;51.516;-0.470;2022-12-18T00:13:43;9;9;
39955;PMS5003;25631;51.516;-0.470;2022-12-18T00:16:21;9;9;
39955;PMS5003;25631;51.516;-0.470;2022-12-18T00:18:59;9;9;
39955;PMS5003;25631;51.516;-0.470;2022-12-18T00:21:36;9;8;
39955;PMS5003;25631;51.516;-0.470;2022-12-18T00:24:12;9;8;
39955;PMS5003;25631;51.516;-0.470;2022-12-18T00:26:48;9;8;
39955;PMS5003;25631;51.516;-0.470;2022-12-18T00:29:25;8;8;
39955;PMS5003;25631;51.516;-0.470;2022-12-18T00:32:01;8;8;
39955;PMS5003;25631;51.516;-0.470;2022-12-18T00:34:38;8;8;
39955;PMS5003;25631;51.516;-0.470;2022-12-18T00:37:15;8;8;
39955;PMS5003;25631;51.516;-0.470;2022-12-18T00:39:51;8;8;
39955;PMS5003;25631;51.516;-0.470;2022-12-18T00:42:28;8;8;
39955;PMS5003;25631;51.516;-0.470;2022-12-18T00:45:05;10;10;
39955;PMS5003;25631;51.516;-0.470;2022-12-18T00:47:42;10;10;
39955;PMS5003;25631;51.516;-0.470;2022-12-18T00:50:18;10;10;
39955;PMS5003;25631;51.516;-0.470;2022-12-18T00:52:55;11;10;
39955;PMS5003;25631;51.516;-0.470;2022-12-18T00:55:31;11;10;
39955;PMS5003;25631;51.516;-0.470;2022-12-18T00:58:08;11;10;
39955;PMS5003;25631;51.516;-0.470;2022-12-18T01:00:45;10;10;
39955;PMS5003;25631;51.516;-0.470;2022-12-18T01:03:22;10;10;
39955;PMS5003;25631;51.516;-0.470;2022-12-18T01:05:58;10;10;
39955;PMS5003;25631;51.516;-0.470;2022-12-18T01:08:35;10;10;
39955;PMS5003;25631;51.516;-0.470;2022-12-18T01:11:13;10;10;
39955;PMS5003;25631;51.516;-0.470;2022-12-18T01:13:52;10;10;
39955;PMS5003;25631;51.516;-0.470;2022-12-18T01:16:29;10;10;
39955;PMS5003;25631;51.516;-0.470;2022-12-18T01:19:05;10;10;
39955;PMS5003;25631;51.516;-0.470;2022-12-18T01:21:42;10;10;
39955;PMS5003;25631;51.516;-0.470;2022-12-18T01:24:18;9;9;
39955;PMS5003;25631;51.516;-0.470;2022-12-18T01:26:55;9;9;
39955;PMS5003;25631;51.516;-0.470;2022-12-18T01:29:31;9;9;
39955;PMS5003;25631;51.516;-0.470;2022-12-18T01:32:08;10;9;
39955;PMS5003;25631;51.516;-0.470;2022-12-18T01:34:45;10;9;
39955;PMS5003;25631;51.516;-0.470;2022-12-18T01:37:21;10;9;
39955;PMS5003;25631;51.516;-0.470;2022-12-18T01:39:58;10;10;
39955;PMS5003;25631;51.516;-0.470;2022-12-18T01:42:34;10;10;
39955;PMS5003;25631;51.516;-0.470;2022-12-18T01:45:27;10;10;
39955;PMS5003;25631;51.516;-0.470;2022-12-18T01:48:05;11;10;
39955;PMS5003;25631;51.516;-0.470;2022-12-18T01:50:43;11;10;
39955;PMS5003;25631;51.516;-0.470;2022-12-18T01:53:20;11;10;
39955;PMS5003;25631;51.516;-0.470;2022-12-18T01:55:59;10;10;
39955;PMS5003;25631;51.516;-0.470;2022-12-18T01:58:43;10;10;
39955;PMS5003;25631;51.516;-0.470;2022-12-18T02:01:28;10;10;
39955;PMS5003;25631;51.516;-0.470;2022-12-18T02:04:19;8;8;
39955;PMS5003;25631;51.516;-0.470;2022-12-18T02:06:59;8;8;
39955;PMS5003;25631;51.516;-0.470;2022-12-18T02:09:49;8;8;
39955;PMS5003;25631;51.516;-0.470;2022-12-18T02:12:33;8;8;
39955;PMS5003;25631;51.516;-0.470;2022-12-18T02:15:19;8;8;
39955;PMS5003;25631;51.516;-0.470;2022-12-18T02:18:02;8;8;
39955;PMS5003;25631;51.516;-0.470;2022-12-18T02:20:44;8;8;
39955;PMS5003;25631;51.516;-0.470;2022-12-18T02:23:28;8;8;
39955;PMS5003;25631;51.516;-0.470;2022-12-18T02:26:18;8;8;
39955;PMS5003;25631;51.516;-0.470;2022-12-18T02:28:59;8;8;
39955;PMS5003;25631;51.516;-0.470;2022-12-18T02:31:42;8;8;
39955;PMS5003;25631;51.516;-0.470;2022-12-18T02:34:22;8;8;
39955;PMS5003;25631;51.516;-0.470;2022-12-18T02:37:03;8;8;
39955;PMS5003;25631;51.516;-0.470;2022-12-18T02:39:43;8;8;
39955;PMS5003;25631;51.516;-0.470;2022-12-18T02:42:23;8;8;
39955;PMS5003;25631;51.516;-0.470;2022-12-18T02:45:01;8;8;
39955;PMS5003;25631;51.516;-0.470;2022-12-18T02:47:39;8;8;
39955;PMS5003;25631;51.516;-0.470;2022-12-18T02:50:20;8;8;
39955;PMS5003;25631;51.516;-0.470;2022-12-18T02:53:06;8;8;
39955;PMS5003;25631;51.516;-0.470;2022-12-18T02:55:54;8;8;
39955;PMS5003;25631;51.516;-0.470;2022-12-18T02:58:40;8;8;
39955;PMS5003;25631;51.516;-0.470;2022-12-18T03:01:28;8;8;
39955;PMS5003;25631;51.516;-0.470;2022-12-18T03:04:13;8;8;
39955;PMS5003;25631;51.516;-0.470;2022-12-18T03:06:55;8;8;
39955;PMS5003;25631;51.516;-0.470;2022-12-18T03:09:35;8;8;
39955;PMS5003;25631;51.516;-0.470;2022-12-18T03:12:15;8;8;
39955;PMS5003;25631;51.516;-0.470;2022-12-18T03:14:58;8;8;
39955;PMS5003;25631;51.516;-0.470;2022-12-18T03:17:40;8;8;
39955;PMS5003;25631;51.516;-0.470;2022-12-18T03:20:22;8;8;
39955;PMS5003;25631;51.516;-0.470;2022-12-18T03:23:04;8;8;
39955;PMS5003;25631;51.516;-0.470;2022-12-18T03:25:45;9;9;
39955;PMS5003;25631;51.516;-0.470;2022-12-18T03:28:24;9;9;
39955;PMS5003;25631;51.516;-0.470;2022-12-18T03:31:06;9;9;
39955;PMS5003;25631;51.516;-0.470;2022-12-18T03:33:51;10;10;
39955;PMS5003;25631;51.516;-0.470;2022-12-18T03:36:30;10;10;
39955;PMS5003;25631;51.516;-0.470;2022-12-18T03:39:06;10;10;
39955;PMS5003;25631;51.516;-0.470;2022-12-18T03:41:43;10;10;
39955;PMS5003;25631;51.516;-0.470;2022-12-18T03:44:25;10;10;
39955;PMS5003;25631;51.516;-0.470;2022-12-18T03:47:07;10;10;
39955;PMS5003;25631;51.516;-0.470;2022-12-18T03:49:48;10;10;
39955;PMS5003;25631;51.516;-0.470;2022-12-18T03:52:33;10;10;
39955;PMS5003;25631;51.516;-0.470;2022-12-18T03:55:16;10;10;
39955;PMS5003;25631;51.516;-0.470;2022-12-18T03:57:55;10;10;
39955;PMS5003;25631;51.516;-0.470;2022-12-18T04:00:33;10;10;
39955;PMS5003;25631;51.516;-0.470;2022-12-18T04:03:10;10;10;
39955;PMS5003;25631;51.516;-0.470;2022-12-18T04:05:48;10;10;
39955;PMS5003;25631;51.516;-0.470;2022-12-18T04:08:27;10;10;
39955;PMS5003;25631;51.516;-0.470;2022-12-18T04:11:04;10;10;
39955;PMS5003;25631;51.516;-0.470;2022-12-18T04:13:41;10;10;
39955;PMS5003;25631;51.516;-0.470;2022-12-18T04:16:18;10;10;
39955;PMS5003;25631;51.516;-0.470;2022-12-18T04:18:55;10;10;
39955;PMS5003;25631;51.516;-0.470;2022-12-18T04:21:31;9;9;
39955;PMS5003;25631;51.516;-0.470;2022-12-18T04:24:07;9;9;
39955;PMS5003;25631;51.516;-0.470;2022-12-18T04:26:44;9;9;
39955;PMS5003;25631;51.516;-0.470;2022-12-18T04:29:20;9;9;
39955;PMS5003;25631;51.516;-0.470;2022-12-18T04:31:57;9;9;
39955;PMS5003;25631;51.516;-0.470;2022-12-18T04:34:33;9;9;
39955;PMS5003;25631;51.516;-0.470;2022-12-18T04:37:10;10;9;
39955;PMS5003;25631;51.516;-0.470;2022-12-18T04:39:46;10;9;
39955;PMS5003;25631;51.516;-0.470;2022-12-18T04:42:23;10;9;
39955;PMS5003;25631;51.516;-0.470;2022-12-18T04:44:59;9;8;
39955;PMS5003;25631;51.516;-0.470;2022-12-18T04:47:36;9;8;
39955;PMS5003;25631;51.516;-0.470;2022-12-18T04:50:12;9;8;
39955;PMS5003;25631;51.516;-0.470;2022-12-18T04:52:49;9;8;
39955;PMS5003;25631;51.516;-0.470;2022-12-18T04:55:26;9;8;
39955;PMS5003;25631;51.516;-0.470;2022-12-18T04:58:03;9;8;
39955;PMS5003;25631;51.516;-0.470;2022-12-18T05:00:39;9;8;
39955;PMS5003;25631;51.516;-0.470;2022-12-18T05:03:16;9;8;
39955;PMS5003;25631;51.516;-0.470;2022-12-18T05:05:52;9;8;
39955;PMS5003;25631;51.516;-0.470;2022-12-18T05:08:29;8;7;
39955;PMS5003;25631;51.516;-0.470;2022-12-18T05:11:06;8;7;
39955;PMS5003;25631;51.516;-0.470;2022-12-18T05:13:45;8;7;
39955;PMS5003;25631;51.516;-0.470;2022-12-18T05:16:21;8;7;
39955;PMS5003;25631;51.516;-0.470;2022-12-18T05:18:58;8;7;
39955;PMS5003;25631;51.516;-0.470;2022-12-18T05:21:34;8;7;
39955;PMS5003;25631;51.516;-0.470;2022-12-18T05:24:11;8;8;
39955;PMS5003;25631;51.516;-0.470;2022-12-18T05:26:47;8;8;
39955;PMS5003;25631;51.516;-0.470;2022-12-18T05:29:24;8;8;
39955;PMS5003;25631;51.516;-0.470;2022-12-18T05:32:00;10;8;
39955;PMS5003;25631;51.516;-0.470;2022-12-18T05:34:37;10;8;
39955;PMS5003;25631;51.516;-0.470;2022-12-18T05:37:14;10;8;
39955;PMS5003;25631;51.516;-0.470;2022-12-18T05:39:50;10;8;
39955;PMS5003;25631;51.516;-0.470;2022-12-18T05:42:27;10;8;
39955;PMS5003;25631;51.516;-0.470;2022-12-18T05:45:03;10;8;
39955;PMS5003;25631;51.516;-0.470;2022-12-18T05:47:41;10;8;
39955;PMS5003;25631;51.516;-0.470;2022-12-18T05:50:17;10;8;
39955;PMS5003;25631;51.516;-0.470;2022-12-18T05:52:54;10;8;
39955;PMS5003;25631;51.516;-0.470;2022-12-18T05:55:32;10;8;
39955;PMS5003;25631;51.516;-0.470;2022-12-18T05:58:10;10;8;
39955;PMS5003;25631;51.516;-0.470;2022-12-18T06:00:47;10;8;
39955;PMS5003;25631;51.516;-0.470;2022-12-18T06:03:23;10;8;
39955;PMS5003;25631;51.516;-0.470;2022-12-18T06:06:00;10;8;
39955;PMS5003;25631;51.516;-0.470;2022-12-18T06:08:36;10;8;
39955;PMS5003;25631;51.516;-0.470;2022-12-18T06:11:15;9;7;
39955;PMS5003;25631;51.516;-0.470;2022-12-18T06:13:54;9;7;
39955;PMS5003;25631;51.516;-0.470;2022-12-18T06:16:32;9;7;
39955;PMS5003;25631;51.516;-0.470;2022-12-18T06:19:13;9;7;
39955;PMS5003;25631;51.516;-0.470;2022-12-18T06:21:51;9;7;
39955;PMS5003;25631;51.516;-0.470;2022-12-18T06:24:27;9;7;
39955;PMS5003;25631;51.516;-0.470;2022-12-18T06:27:04;9;8;
39955;PMS5003;25631;51.516;-0.470;2022-12-18T06:29:41;9;8;
39955;PMS5003;25631;51.516;-0.470;2022-12-18T06:32:17;9;8;
39955;PMS5003;25631;51.516;-0.470;2022-12-18T06:34:54;9;8;
39955;PMS5003;25631;51.516;-0.470;2022-12-18T06:37:30;9;8;
39955;PMS5003;25631;51.516;-0.470;2022-12-18T06:40:07;9;8;
39955;PMS5003;25631;51.516;-0.470;2022-12-18T06:42:44;10;8;
39955;PMS5003;25631;51.516;-0.470;2022-12-18T06:45:21;10;8;
39955;PMS5003;25631;51.516;-0.470;2022-12-18T06:47:57;10;8;
39955;PMS5003;25631;51.516;-0.470;2022-12-18T06:50:33;8;8;
39955;PMS5003;25631;51.516;-0.470;2022-12-18T06:53:10;8;8;
39955;PMS5003;25631;51.516;-0.470;2022-12-18T06:55:46;8;8;
39955;PMS5003;25631;51.516;-0.470;2022-12-18T06:58:23;9;8;
39955;PMS5003;25631;51.516;-0.470;2022-12-18T07:01:00;9;8;
39955;PMS5003;25631;51.516;-0.470;2022-12-18T07:03:36;9;8;
39955;PMS5003;25631;51.516;-0.470;2022-12-18T07:06:13;11;10;
39955;PMS5003;25631;51.516;-0.470;2022-12-18T07:08:51;11;10;
39955;PMS5003;25631;51.516;-0.470;2022-12-18T07:11:29;11;10;
39955;PMS5003;25631;51.516;-0.470;2022-12-18T07:14:07;11;10;
39955;PMS5003;25631;51.516;-0.470;2022-12-18T07:16:44;12;11;
39955;PMS5003;25631;51.516;-0.470;2022-12-18T07:19:23;14;13;
39955;PMS5003;25631;51.516;-0.470;2022-12-18T07:22:00;14;13;
39955;PMS5003;25631;51.516;-0.470;2022-12-18T07:24:37;14;13;
39955;PMS5003;25631;51.516;-0.470;2022-12-18T07:27:13;15;14;
39955;PMS5003;25631;51.516;-0.470;2022-12-18T07:29:49;15;13;
39955;PMS5003;25631;51.516;-0.470;2022-12-18T07:32:26;15;14;
39955;PMS5003;25631;51.516;-0.470;2022-12-18T07:35:03;15;14;
39955;PMS5003;25631;51.516;-0.470;2022-12-18T07:37:40;13;12;
39955;PMS5003;25631;51.516;-0.470;2022-12-18T07:40:16;13;12;
39955;PMS5003;25631;51.516;-0.470;2022-12-18T07:42:53;13;12;
39955;PMS5003;25631;51.516;-0.470;2022-12-18T07:45:29;12;12;
39955;PMS5003;25631;51.516;-0.470;2022-12-18T07:48:05;12;12;
39955;PMS5003;25631;51.516;-0.470;2022-12-18T07:50:42;12;12;
39955;PMS5003;25631;51.516;-0.470;2022-12-18T07:53:19;12;11;
39955;PMS5003;25631;51.516;-0.470;2022-12-18T07:55:55;12;11;
39955;PMS5003;25631;51.516;-0.470;2022-12-18T07:58:32;12;11;
39955;PMS5003;25631;51.516;-0.470;2022-12-18T08:01:10;12;11;
39955;PMS5003;25631;51.516;-0.470;2022-12-18T08:03:47;12;11;
39955;PMS5003;25631;51.516;-0.470;2022-12-18T08:06:24;12;11;
39955;PMS5003;25631;51.516;-0.470;2022-12-18T08:09:00;12;12;
39955;PMS5003;25631;51.516;-0.470;2022-12-18T08:11:38;12;12;
39955;PMS5003;25631;51.516;-0.470;2022-12-18T08:14:15;12;12;
39955;PMS5003;25631;51.516;-0.470;2022-12-18T08:16:51;12;11;
39955;PMS5003;25631;51.516;-0.470;2022-12-18T08:19:28;12;11;
39955;PMS5003;25631;51.516;-0.470;2022-12-18T08:22:04;12;11;
39955;PMS5003;25631;51.516;-0.470;2022-12-18T08:24:41;11;11;
39955;PMS5003;25631;51.516;-0.470;2022-12-18T08:27:17;11;11;
39955;PMS5003;25631;51.516;-0.470;2022-12-18T08:29:54;11;11;
39955;PMS5003;25631;51.516;-0.470;2022-12-18T08:32:31;12;11;
39955;PMS5003;25631;51.516;-0.470;2022-12-18T08:35:08;12;11;
39955;PMS5003;25631;51.516;-0.470;2022-12-18T08:37:44;12;11;
39955;PMS5003;25631;51.516;-0.470;2022-12-18T08:40:21;12;11;
39955;PMS5003;25631;51.516;-0.470;2022-12-18T08:42:57;12;11;
39955;PMS5003;25631;51.516;-0.470;2022-12-18T08:45:34;12;11;
39955;PMS5003;25631;51.516;-0.470;2022-12-18T08:48:10;11;11;
39955;PMS5003;25631;51.516;-0.470;2022-12-18T08:50:53;11;11;
39955;PMS5003;25631;51.516;-0.470;2022-12-18T08:53:30;11;11;
39955;PMS5003;25631;51.516;-0.470;2022-12-18T08:56:07;10;10;
39955;PMS5003;25631;51.516;-0.470;2022-12-18T08:58:43;10;10;
39955;PMS5003;25631;51.516;-0.470;2022-12-18T09:01:20;10;10;
39955;PMS5003;25631;51.516;-0.470;2022-12-18T09:03:57;10;9;
39955;PMS5003;25631;51.516;-0.470;2022-12-18T09:06:33;10;9;
39955;PMS5003;25631;51.516;-0.470;2022-12-18T09:09:10;10;9;
39955;PMS5003;25631;51.516;-0.470;2022-12-18T09:11:47;11;10;
39955;PMS5003;25631;51.516;-0.470;2022-12-18T09:14:23;11;10;
39955;PMS5003;25631;51.516;-0.470;2022-12-18T09:16:59;11;10;
39955;PMS5003;25631;51.516;-0.470;2022-12-18T09:19:36;11;11;
39955;PMS5003;25631;51.516;-0.470;2022-12-18T09:22:12;11;11;
39955;PMS5003;25631;51.516;-0.470;2022-12-18T09:24:49;11;11;
39955;PMS5003;25631;51.516;-0.470;2022-12-18T09:27:25;11;11;
39955;PMS5003;25631;51.516;-0.470;2022-12-18T09:30:02;11;11;
39955;PMS5003;25631;51.516;-0.470;2022-12-18T09:32:39;11;11;
39955;PMS5003;25631;51.516;-0.470;2022-12-18T09:35:16;11;11;
39955;PMS5003;25631;51.516;-0.470;2022-12-18T09:37:53;11;11;
39955;PMS5003;25631;51.516;-0.470;2022-12-18T09:40:32;11;11;
39955;PMS5003;25631;51.516;-0.470;2022-12-18T09:43:14;11;11;
39955;PMS5003;25631;51.516;-0.470;2022-12-18T09:45:55;11;11;
39955;PMS5003;25631;51.516;-0.470;2022-12-18T09:48:36;11;11;
39955;PMS5003;25631;51.516;-0.470;2022-12-18T09:51:17;10;10;
39955;PMS5003;25631;51.516;-0.470;2022-12-18T09:53:58;10;10;
39955;PMS5003;25631;51.516;-0.470;2022-12-18T09:56:40;10;10;
39955;PMS5003;25631;51.516;-0.470;2022-12-18T09:59:21;11;11;
39955;PMS5003;25631;51.516;-0.470;2022-12-18T10:02:00;11;11;
39955;PMS5003;25631;51.516;-0.470;2022-12-18T10:04:52;11;11;
39955;PMS5003;25631;51.516;-0.470;2022-12-18T10:07:42;11;11;
39955;PMS5003;25631;51.516;-0.470;2022-12-18T10:10:29;11;11;
39955;PMS5003;25631;51.516;-0.470;2022-12-18T10:13:16;11;11;
39955;PMS5003;25631;51.516;-0.470;2022-12-18T10:16:03;11;11;
39955;PMS5003;25631;51.516;-0.470;2022-12-18T10:18:53;11;11;
39955;PMS5003;25631;51.516;-0.470;2022-12-18T10:21:41;11;11;
39955;PMS5003;25631;51.516;-0.470;2022-12-18T10:24:26;11;11;
39955;PMS5003;25631;51.516;-0.470;2022-12-18T10:27:14;11;11;
39955;PMS5003;25631;51.516;-0.470;2022-12-18T10:29:52;11;11;
39955;PMS5003;25631;51.516;-0.470;2022-12-18T10:32:29;10;9;
39955;PMS5003;25631;51.516;-0.470;2022-12-18T10:35:07;10;9;
39955;PMS5003;25631;51.516;-0.470;2022-12-18T10:38:01;10;9;
39955;PMS5003;25631;51.516;-0.470;2022-12-18T10:40:47;9;9;
39955;PMS5003;25631;51.516;-0.470;2022-12-18T10:43:26;9;9;
39955;PMS5003;25631;51.516;-0.470;2022-12-18T10:46:10;9;9;
39955;PMS5003;25631;51.516;-0.470;2022-12-18T10:48:52;9;9;
39955;PMS5003;25631;51.516;-0.470;2022-12-18T10:51:31;9;9;
39955;PMS5003;25631;51.516;-0.470;2022-12-18T10:54:13;9;9;
39955;PMS5003;25631;51.516;-0.470;2022-12-18T10:56:52;9;9;
39955;PMS5003;25631;51.516;-0.470;2022-12-18T10:59:51;9;9;
39955;PMS5003;25631;51.516;-0.470;2022-12-18T11:02:34;9;9;
39955;PMS5003;25631;51.516;-0.470;2022-12-18T11:05:22;9;8;
39955;PMS5003;25631;51.516;-0.470;2022-12-18T11:08:01;9;8;
39955;PMS5003;25631;51.516;-0.470;2022-12-18T11:10:38;9;8;
39955;PMS5003;25631;51.516;-0.470;2022-12-18T11:13:16;10;9;
39955;PMS5003;25631;51.516;-0.470;2022-12-18T11:15:56;10;9;
39955;PMS5003;25631;51.516;-0.470;2022-12-18T11:18:34;10;9;
39955;PMS5003;25631;51.516;-0.470;2022-12-18T11:21:12;9;8;
39955;PMS5003;25631;51.516;-0.470;2022-12-18T11:23:50;9;8;
39955;PMS5003;25631;51.516;-0.470;2022-12-18T11:26:33;9;8;
39955;PMS5003;25631;51.516;-0.470;2022-12-18T11:29:16;9;8;
39955;PMS5003;25631;51.516;-0.470;2022-12-18T11:31:55;9;8;
39955;PMS5003;25631;51.516;-0.470;2022-12-18T11:35:02;9;8;
39955;PMS5003;25631;51.516;-0.470;2022-12-18T11:37:47;9;8;
39955;PMS5003;25631;51.516;-0.470;2022-12-18T11:40:30;9;8;
39955;PMS5003;25631;51.516;-0.470;2022-12-18T11:43:13;9;8;
39955;PMS5003;25631;51.516;-0.470;2022-12-18T11:45:53;10;8;
39955;PMS5003;25631;51.516;-0.470;2022-12-18T11:48:36;10;8;
39955;PMS5003;25631;51.516;-0.470;2022-12-18T11:51:19;10;8;
39955;PMS5003;25631;51.516;-0.470;2022-12-18T11:54:07;9;7;
39955;PMS5003;25631;51.516;-0.470;2022-12-18T11:56:49;9;7;
39955;PMS5003;25631;51.516;-0.470;2022-12-18T11:59:33;9;7;
39955;PMS5003;25631;51.516;-0.470;2022-12-18T12:02:24;9;8;
39955;PMS5003;25631;51.516;-0.470;2022-12-18T12:05:28;9;8;
39955;PMS5003;25631;51.516;-0.470;2022-12-18T12:08:14;9;8;
39955;PMS5003;25631;51.516;-0.470;2022-12-18T12:10:58;9;8;
39955;PMS5003;25631;51.516;-0.470;2022-12-18T12:13:45;9;8;
39955;PMS5003;25631;51.516;-0.470;2022-12-18T12:16:32;9;8;
39955;PMS5003;25631;51.516;-0.470;2022-12-18T12:19:18;8;7;
39955;PMS5003;25631;51.516;-0.470;2022-12-18T12:22:10;8;7;
39955;PMS5003;25631;51.516;-0.470;2022-12-18T12:24:58;8;7;
39955;PMS5003;25631;51.516;-0.470;2022-12-18T12:27:45;8;7;
39955;PMS5003;25631;51.516;-0.470;2022-12-18T12:30:33;8;7;
39955;PMS5003;25631;51.516;-0.470;2022-12-18T12:33:23;8;7;
39955;PMS5003;25631;51.516;-0.470;2022-12-18T12:36:16;8;8;
39955;PMS5003;25631;51.516;-0.470;2022-12-18T12:38:58;8;8;
39955;PMS5003;25631;51.516;-0.470;2022-12-18T12:41:42;8;8;
39955;PMS5003;25631;51.516;-0.470;2022-12-18T12:44:22;9;8;
39955;PMS5003;25631;51.516;-0.470;2022-12-18T12:47:04;9;8;
39955;PMS5003;25631;51.516;-0.470;2022-12-18T12:49:48;9;8;
39955;PMS5003;25631;51.516;-0.470;2022-12-18T12:52:28;8;7;
39955;PMS5003;25631;51.516;-0.470;2022-12-18T12:55:13;8;7;
39955;PMS5003;25631;51.516;-0.470;2022-12-18T12:57:55;8;7;
39955;PMS5003;25631;51.516;-0.470;2022-12-18T13:00:41;8;7;
39955;PMS5003;25631;51.516;-0.470;2022-12-18T13:03:29;8;7;
39955;PMS5003;25631;51.516;-0.470;2022-12-18T13:06:19;8;7;
39955;PMS5003;25631;51.516;-0.470;2022-12-18T13:09:09;7;7;
39955;PMS5003;25631;51.516;-0.470;2022-12-18T13:11:45;7;7;
39955;PMS5003;25631;51.516;-0.470;2022-12-18T13:14:24;7;7;
39955;PMS5003;25631;51.516;-0.470;2022-12-18T13:17:36;7;7;
39955;PMS5003;25631;51.516;-0.470;2022-12-18T13:20:13;7;7;
39955;PMS5003;25631;51.516;-0.470;2022-12-18T13:22:51;7;7;
39955;PMS5003;25631;51.516;-0.470;2022-12-18T13:25:29;7;7;
39955;PMS5003;25631;51.516;-0.470;2022-12-18T13:28:09;7;7;
39955;PMS5003;25631;51.516;-0.470;2022-12-18T13:30:48;7;7;
39955;PMS5003;25631;51.516;-0.470;2022-12-18T13:33:40;8;8;
39955;PMS5003;25631;51.516;-0.470;2022-12-18T13:36:33;8;8;
39955;PMS5003;25631;51.516;-0.470;2022-12-18T13:39:15;8;8;
39955;PMS5003;25631;51.516;-0.470;2022-12-18T13:42:41;8;8;
39955;PMS5003;25631;51.516;-0.470;2022-12-18T13:45:58;8;8;
39955;PMS5003;25631;51.516;-0.470;2022-12-18T13:48:37;8;8;
39955;PMS5003;25631;51.516;-0.470;2022-12-18T13:51:15;9;9;
39955;PMS5003;25631;51.516;-0.470;2022-12-18T13:53:55;9;9;
39955;PMS5003;25631;51.516;-0.470;2022-12-18T13:56:34;9;9;
39955;PMS5003;25631;51.516;-0.470;2022-12-18T13:59:21;9;9;
39955;PMS5003;25631;51.516;-0.470;2022-12-18T14:02:00;9;9;
39955;PMS5003;25631;51.516;-0.470;2022-12-18T14:04:44;9;9;
39955;PMS5003;25631;51.516;-0.470;2022-12-18T14:07:22;9;9;
39955;PMS5003;25631;51.516;-0.470;2022-12-18T14:10:00;9;9;
39955;PMS5003;25631;51.516;-0.470;2022-12-18T14:12:38;9;9;
39955;PMS5003;25631;51.516;-0.470;2022-12-18T14:15:16;9;9;
39955;PMS5003;25631;51.516;-0.470;2022-12-18T14:18:01;9;9;
39955;PMS5003;25631;51.516;-0.470;2022-12-18T14:20:49;9;9;
39955;PMS5003;25631;51.516;-0.470;2022-12-18T14:23:28;10;10;
39955;PMS5003;25631;51.516;-0.470;2022-12-18T14:26:19;10;10;
39955;PMS5003;25631;51.516;-0.470;2022-12-18T14:28:59;10;10;
39955;PMS5003;25631;51.516;-0.470;2022-12-18T14:32:10;10;10;
39955;PMS5003;25631;51.516;-0.470;2022-12-18T14:34:48;10;10;
39955;PMS5003;25631;51.516;-0.470;2022-12-18T14:37:26;10;10;
39955;PMS5003;25631;51.516;-0.470;2022-12-18T14:40:03;10;10;
39955;PMS5003;25631;51.516;-0.470;2022-12-18T14:42:40;10;10;
39955;PMS5003;25631;51.516;-0.470;2022-12-18T14:45:35;10;10;
39955;PMS5003;25631;51.516;-0.470;2022-12-18T14:48:15;11;11;
39955;PMS5003;25631;51.516;-0.470;2022-12-18T14:50:55;11;11;
39955;PMS5003;25631;51.516;-0.470;2022-12-18T14:53:35;11;11;
39955;PMS5003;25631;51.516;-0.470;2022-12-18T14:56:15;10;10;
39955;PMS5003;25631;51.516;-0.470;2022-12-18T14:58:54;10;10;
39955;PMS5003;25631;51.516;-0.470;2022-12-18T15:01:33;10;10;
39955;PMS5003;25631;51.516;-0.470;2022-12-18T15:04:23;11;11;
39955;PMS5003;25631;51.516;-0.470;2022-12-18T15:07:04;11;11;
39955;PMS5003;25631;51.516;-0.470;2022-12-18T15:10:00;11;11;
39955;PMS5003;25631;51.516;-0.470;2022-12-18T15:12:44;10;10;
39955;PMS5003;25631;51.516;-0.470;2022-12-18T15:15:54;10;10;
39955;PMS5003;25631;51.516;-0.470;2022-12-18T15:18:34;10;10;
39955;PMS5003;25631;51.516;-0.470;2022-12-18T15:21:17;9;9;
39955;PMS5003;25631;51.516;-0.470;2022-12-18T15:23:55;9;9;
39955;PMS5003;25631;51.516;-0.470;2022-12-18T15:26:32;9;9;
39955;PMS5003;25631;51.516;-0.470;2022-12-18T15:29:15;9;9;
39955;PMS5003;25631;51.516;-0.470;2022-12-18T15:32:00;9;9;
39955;PMS5003;25631;51.516;-0.470;2022-12-18T15:34:38;9;9;
39955;PMS5003;25631;51.516;-0.470;2022-12-18T15:37:14;10;10;
39955;PMS5003;25631;51.516;-0.470;2022-12-18T15:39:51;10;10;
39955;PMS5003;25631;51.516;-0.470;2022-12-18T15:42:27;10;10;
39955;PMS5003;25631;51.516;-0.470;2022-12-18T15:45:04;10;10;
39955;PMS5003;25631;51.516;-0.470;2022-12-18T15:47:42;10;10;
39955;PMS5003;25631;51.516;-0.470;2022-12-18T15:50:18;10;10;
39955;PMS5003;25631;51.516;-0.470;2022-12-18T15:52:55;10;10;
39955;PMS5003;25631;51.516;-0.470;2022-12-18T15:55:31;10;10;
39955;PMS5003;25631;51.516;-0.470;2022-12-18T15:58:08;10;10;
39955;PMS5003;25631;51.516;-0.470;2022-12-18T16:00:45;10;10;
39955;PMS5003;25631;51.516;-0.470;2022-12-18T16:03:22;10;10;
39955;PMS5003;25631;51.516;-0.470;2022-12-18T16:05:58;10;10;
39955;PMS5003;25631;51.516;-0.470;2022-12-18T16:08:35;10;10;
39955;PMS5003;25631;51.516;-0.470;2022-12-18T16:11:15;10;10;
39955;PMS5003;25631;51.516;-0.470;2022-12-18T16:13:57;10;10;
39955;PMS5003;25631;51.516;-0.470;2022-12-18T16:16:34;9;9;
39955;PMS5003;25631;51.516;-0.470;2022-12-18T16:19:10;9;9;
39955;PMS5003;25631;51.516;-0.470;2022-12-18T16:21:47;9;9;
39955;PMS5003;25631;51.516;-0.470;2022-12-18T16:24:26;9;9;
39955;PMS5003;25631;51.516;-0.470;2022-12-18T16:27:04;9;9;
39955;PMS5003;25631;51.516;-0.470;2022-12-18T16:29:40;9;9;
39955;PMS5003;25631;51.516;-0.470;2022-12-18T16:32:18;11;10;
39955;PMS5003;25631;51.516;-0.470;2022-12-18T16:34:59;11;10;
39955;PMS5003;25631;51.516;-0.470;2022-12-18T16:37:36;11;10;
39955;PMS5003;25631;51.516;-0.470;2022-12-18T16:40:14;11;10;
39955;PMS5003;25631;51.516;-0.470;2022-12-18T16:42:52;11;10;
39955;PMS5003;25631;51.516;-0.470;2022-12-18T16:45:28;11;10;
39955;PMS5003;25631;51.516;-0.470;2022-12-18T16:48:05;12;11;
39955;PMS5003;25631;51.516;-0.470;2022-12-18T16:50:42;12;11;
39955;PMS5003;25631;51.516;-0.470;2022-12-18T16:53:18;12;11;
39955;PMS5003;25631;51.516;-0.470;2022-12-18T16:55:55;11;10;
39955;PMS5003;25631;51.516;-0.470;2022-12-18T16:58:32;11;10;
39955;PMS5003;25631;51.516;-0.470;2022-12-18T17:01:09;11;10;
39955;PMS5003;25631;51.516;-0.470;2022-12-18T17:03:50;11;10;
39955;PMS5003;25631;51.516;-0.470;2022-12-18T17:06:28;11;10;
39955;PMS5003;25631;51.516;-0.470;2022-12-18T17:09:07;11;10;
39955;PMS5003;25631;51.516;-0.470;2022-12-18T17:11:47;11;10;
39955;PMS5003;25631;51.516;-0.470;2022-12-18T17:14:23;11;10;
39955;PMS5003;25631;51.516;-0.470;2022-12-18T17:17:01;11;10;
39955;PMS5003;25631;51.516;-0.470;2022-12-18T17:19:38;11;10;
39955;PMS5003;25631;51.516;-0.470;2022-12-18T17:22:15;11;10;
39955;PMS5003;25631;51.516;-0.470;2022-12-18T17:24:53;11;10;
39955;PMS5003;25631;51.516;-0.470;2022-12-18T17:27:29;10;10;
39955;PMS5003;25631;51.516;-0.470;2022-12-18T17:30:06;10;10;
39955;PMS5003;25631;51.516;-0.470;2022-12-18T17:32:44;10;10;
39955;PMS5003;25631;51.516;-0.470;2022-12-18T17:35:20;11;10;
39955;PMS5003;25631;51.516;-0.470;2022-12-18T17:37:57;11;10;
39955;PMS5003;25631;51.516;-0.470;2022-12-18T17:40:34;11;10;
39955;PMS5003;25631;51.516;-0.470;2022-12-18T17:43:11;11;10;